createdAt,value
2018-12-12T00:00:26.530Z,1017.05
2018-12-12T00:01:26.518Z,1017.08
2018-12-12T00:02:26.501Z,1017.05
2018-12-12T00:03:26.494Z,1017.05
2018-12-12T00:04:26.483Z,1017.06
2018-12-12T00:05:26.473Z,1017.01
2018-12-12T00:06:26.457Z,1017.06
2018-12-12T00:07:26.448Z,1017.01
2018-12-12T00:08:26.437Z,1017.08
2018-12-12T00:09:26.439Z,1017.09
2018-12-12T00:10:26.415Z,1017.09
2018-12-12T00:11:26.410Z,1017.09
2018-12-12T00:12:26.395Z,1017.10
2018-12-12T00:13:26.385Z,1017.06
2018-12-12T00:14:26.370Z,1017.04
2018-12-12T00:15:26.366Z,1017.06
2018-12-12T00:16:26.356Z,1017.03
2018-12-12T00:17:26.342Z,1017.10
2018-12-12T00:18:26.333Z,1017.03
2018-12-12T00:19:26.324Z,1017.05
2018-12-12T00:20:26.306Z,1017.03
2018-12-12T00:21:26.298Z,1017.02
2018-12-12T00:22:26.285Z,1017.01
2018-12-12T00:23:26.274Z,1017.02
2018-12-12T00:24:26.270Z,1017.02
2018-12-12T00:25:26.253Z,1017.01
2018-12-12T00:26:26.239Z,1017.00
2018-12-12T00:27:27.094Z,1017.03
2018-12-12T00:28:26.221Z,1017.01
2018-12-12T00:29:26.212Z,1017.03
2018-12-12T00:30:26.196Z,1017.02
2018-12-12T00:31:26.188Z,1016.98
2018-12-12T00:32:26.180Z,1016.97
2018-12-12T00:33:26.168Z,1017.01
2018-12-12T00:34:26.162Z,1017.08
2018-12-12T00:35:26.140Z,1017.09
2018-12-12T00:36:26.132Z,1017.12
2018-12-12T00:37:26.122Z,1017.15
2018-12-12T00:38:26.107Z,1017.17
2018-12-12T00:39:26.099Z,1017.15
2018-12-12T00:40:26.091Z,1017.14
2018-12-12T00:41:26.077Z,1017.14
2018-12-12T00:42:26.068Z,1017.15
2018-12-12T00:43:26.058Z,1017.11
2018-12-12T00:44:26.046Z,1017.16
2018-12-12T00:45:26.031Z,1017.14
2018-12-12T00:46:26.045Z,1017.15
2018-12-12T00:47:26.015Z,1017.15
2018-12-12T00:48:25.998Z,1017.13
2018-12-12T00:49:25.993Z,1017.13
2018-12-12T00:50:25.979Z,1017.12
2018-12-12T00:51:25.969Z,1017.15
2018-12-12T00:52:25.954Z,1017.15
2018-12-12T00:53:25.945Z,1017.18
2018-12-12T00:54:25.939Z,1017.17
2018-12-12T00:55:25.928Z,1017.17
2018-12-12T00:56:25.917Z,1017.17
2018-12-12T00:57:25.901Z,1017.13
2018-12-12T00:58:25.901Z,1017.12
2018-12-12T00:59:25.881Z,1017.11
2018-12-12T01:00:25.871Z,1017.14
2018-12-12T01:01:25.863Z,1017.14
2018-12-12T01:02:25.849Z,1017.10
2018-12-12T01:03:25.839Z,1017.11
2018-12-12T01:04:25.829Z,1017.07
2018-12-12T01:05:25.817Z,1017.08
2018-12-12T01:06:25.811Z,1017.04
2018-12-12T01:07:26.269Z,1017.05
2018-12-12T01:08:25.784Z,1017.04
2018-12-12T01:09:25.784Z,1017.01
2018-12-12T01:10:25.758Z,1017.06
2018-12-12T01:11:25.753Z,1017.08
2018-12-12T01:12:25.741Z,1017.09
2018-12-12T01:13:25.729Z,1017.07
2018-12-12T01:14:25.737Z,1017.09
2018-12-12T01:15:25.715Z,1017.11
2018-12-12T01:16:25.690Z,1017.13
2018-12-12T01:17:25.686Z,1017.21
2018-12-12T01:18:25.678Z,1017.16
2018-12-12T01:19:25.668Z,1017.20
2018-12-12T01:20:25.652Z,1017.18
2018-12-12T01:21:25.654Z,1017.14
2018-12-12T01:22:25.631Z,1017.17
2018-12-12T01:23:25.623Z,1017.14
2018-12-12T01:24:25.606Z,1017.22
2018-12-12T01:25:25.607Z,1017.20
2018-12-12T01:26:25.599Z,1017.22
2018-12-12T01:27:25.579Z,1017.21
2018-12-12T01:28:25.562Z,1017.18
2018-12-12T01:29:25.559Z,1017.21
2018-12-12T01:30:25.547Z,1017.22
2018-12-12T01:31:25.534Z,1017.23
2018-12-12T01:32:25.527Z,1017.26
2018-12-12T01:33:25.511Z,1017.23
2018-12-12T01:34:25.501Z,1017.31
2018-12-12T01:35:25.490Z,1017.27
2018-12-12T01:36:25.479Z,1017.28
2018-12-12T01:37:25.471Z,1017.30
2018-12-12T01:38:25.458Z,1017.23
2018-12-12T01:39:25.446Z,1017.24
2018-12-12T01:40:25.437Z,1017.24
2018-12-12T01:41:25.428Z,1017.26
2018-12-12T01:42:25.413Z,1017.28
2018-12-12T01:43:25.401Z,1017.31
2018-12-12T01:44:25.395Z,1017.31
2018-12-12T01:45:25.385Z,1017.34
2018-12-12T01:46:25.366Z,1017.33
2018-12-12T01:47:25.363Z,1017.30
2018-12-12T01:48:25.350Z,1017.30
2018-12-12T01:49:25.335Z,1017.34
2018-12-12T01:50:25.325Z,1017.34
2018-12-12T01:51:25.316Z,1017.32
2018-12-12T01:52:25.302Z,1017.34
2018-12-12T01:53:25.291Z,1017.33
2018-12-12T01:54:25.280Z,1017.33
2018-12-12T01:55:25.272Z,1017.30
2018-12-12T01:56:25.263Z,1017.30
2018-12-12T01:57:25.252Z,1017.31
2018-12-12T01:58:25.239Z,1017.31
2018-12-12T01:59:25.231Z,1017.30
2018-12-12T02:00:25.212Z,1017.30
2018-12-12T02:01:25.207Z,1017.29
2018-12-12T02:02:25.200Z,1017.30
2018-12-12T02:03:25.186Z,1017.27
2018-12-12T02:04:25.172Z,1017.26
2018-12-12T02:05:25.165Z,1017.25
2018-12-12T02:06:25.154Z,1017.29
2018-12-12T02:07:25.140Z,1017.32
2018-12-12T02:08:25.134Z,1017.31
2018-12-12T02:09:25.122Z,1017.30
2018-12-12T02:10:25.112Z,1017.32
2018-12-12T02:11:25.099Z,1017.34
2018-12-12T02:12:25.092Z,1017.34
2018-12-12T02:13:25.071Z,1017.37
2018-12-12T02:14:25.066Z,1017.38
2018-12-12T02:15:25.053Z,1017.37
2018-12-12T02:16:25.041Z,1017.42
2018-12-12T02:17:25.030Z,1017.41
2018-12-12T02:18:25.017Z,1017.43
2018-12-12T02:19:25.635Z,1017.48
2018-12-12T02:20:24.995Z,1017.50
2018-12-12T02:21:24.982Z,1017.47
2018-12-12T02:22:24.979Z,1017.49
2018-12-12T02:23:24.970Z,1017.52
2018-12-12T02:24:24.954Z,1017.56
2018-12-12T02:25:24.944Z,1017.55
2018-12-12T02:26:24.935Z,1017.58
2018-12-12T02:27:24.925Z,1017.60
2018-12-12T02:28:24.915Z,1017.58
2018-12-12T02:29:24.903Z,1017.62
2018-12-12T02:30:24.888Z,1017.62
2018-12-12T02:31:24.883Z,1017.59
2018-12-12T02:32:24.866Z,1017.63
2018-12-12T02:33:24.860Z,1017.63
2018-12-12T02:34:24.853Z,1017.67
2018-12-12T02:35:24.842Z,1017.65
2018-12-12T02:36:24.829Z,1017.67
2018-12-12T02:37:24.816Z,1017.67
2018-12-12T02:38:24.798Z,1017.64
2018-12-12T02:39:24.787Z,1017.65
2018-12-12T02:40:24.788Z,1017.62
2018-12-12T02:41:24.770Z,1017.63
2018-12-12T02:42:24.760Z,1017.57
2018-12-12T02:43:24.750Z,1017.54
2018-12-12T02:44:24.736Z,1017.51
2018-12-12T02:45:24.728Z,1017.48
2018-12-12T02:46:24.715Z,1017.49
2018-12-12T02:47:24.709Z,1017.48
2018-12-12T02:48:24.697Z,1017.51
2018-12-12T02:49:24.678Z,1017.50
2018-12-12T02:50:24.673Z,1017.50
2018-12-12T02:51:26.667Z,1017.51
2018-12-12T02:52:24.648Z,1017.47
2018-12-12T02:53:24.638Z,1017.52
2018-12-12T02:54:24.629Z,1017.50
2018-12-12T02:55:24.621Z,1017.52
2018-12-12T02:56:24.611Z,1017.53
2018-12-12T02:57:24.595Z,1017.54
2018-12-12T02:58:24.588Z,1017.52
2018-12-12T02:59:24.593Z,1017.57
2018-12-12T03:00:24.566Z,1017.58
2018-12-12T03:01:24.556Z,1017.61
2018-12-12T03:02:24.541Z,1017.59
2018-12-12T03:03:24.533Z,1017.60
2018-12-12T03:04:24.529Z,1017.55
2018-12-12T03:05:24.508Z,1017.58
2018-12-12T03:06:24.502Z,1017.58
2018-12-12T03:07:24.483Z,1017.57
2018-12-12T03:08:24.474Z,1017.63
2018-12-12T03:09:24.473Z,1017.61
2018-12-12T03:10:24.461Z,1017.65
2018-12-12T03:11:24.444Z,1017.61
2018-12-12T03:12:24.431Z,1017.63
2018-12-12T03:13:24.433Z,1017.65
2018-12-12T03:14:24.445Z,1017.65
2018-12-12T03:15:24.408Z,1017.64
2018-12-12T03:16:24.394Z,1017.67
2018-12-12T03:17:24.384Z,1017.67
2018-12-12T03:18:24.369Z,1017.70
2018-12-12T03:19:24.358Z,1017.72
2018-12-12T03:20:24.344Z,1017.74
2018-12-12T03:21:24.340Z,1017.77
2018-12-12T03:22:24.336Z,1017.75
2018-12-12T03:23:24.320Z,1017.80
2018-12-12T03:24:24.303Z,1017.83
2018-12-12T03:25:25.151Z,1017.85
2018-12-12T03:26:24.285Z,1017.84
2018-12-12T03:27:24.275Z,1017.93
2018-12-12T03:28:24.264Z,1017.87
2018-12-12T03:29:24.254Z,1017.93
2018-12-12T03:30:24.241Z,1017.91
2018-12-12T03:31:24.228Z,1017.90
2018-12-12T03:32:24.219Z,1017.88
2018-12-12T03:33:24.206Z,1017.92
2018-12-12T03:34:24.204Z,1017.86
2018-12-12T03:35:24.189Z,1017.91
2018-12-12T03:36:24.180Z,1017.81
2018-12-12T03:37:24.233Z,1017.86
2018-12-12T03:38:24.156Z,1017.88
2018-12-12T03:39:24.146Z,1017.85
2018-12-12T03:40:24.653Z,1017.86
2018-12-12T03:41:24.125Z,1017.84
2018-12-12T03:42:24.118Z,1017.85
2018-12-12T03:43:24.102Z,1017.84
2018-12-12T03:44:24.094Z,1017.87
2018-12-12T03:45:24.083Z,1017.82
2018-12-12T03:46:24.654Z,1017.83
2018-12-12T03:47:24.058Z,1017.82
2018-12-12T03:48:24.045Z,1017.85
2018-12-12T03:49:24.040Z,1017.84
2018-12-12T03:50:24.025Z,1017.81
2018-12-12T03:51:24.020Z,1017.87
2018-12-12T03:52:24.007Z,1017.81
2018-12-12T03:53:23.994Z,1017.85
2018-12-12T03:54:23.982Z,1017.81
2018-12-12T03:55:23.980Z,1017.84
2018-12-12T03:56:23.958Z,1017.86
2018-12-12T03:57:23.952Z,1017.86
2018-12-12T03:58:23.943Z,1017.84
2018-12-12T03:59:23.984Z,1017.82
2018-12-12T04:00:23.922Z,1017.78
2018-12-12T04:01:23.907Z,1017.81
2018-12-12T04:02:23.902Z,1017.81
2018-12-12T04:03:23.895Z,1017.77
2018-12-12T04:04:23.883Z,1017.79
2018-12-12T04:05:23.862Z,1017.76
2018-12-12T04:06:23.851Z,1017.81
2018-12-12T04:07:23.846Z,1017.75
2018-12-12T04:08:23.839Z,1017.78
2018-12-12T04:09:23.819Z,1017.76
2018-12-12T04:10:23.819Z,1017.77
2018-12-12T04:11:23.801Z,1017.80
2018-12-12T04:12:23.796Z,1017.80
2018-12-12T04:13:24.659Z,1017.81
2018-12-12T04:14:23.768Z,1017.82
2018-12-12T04:15:23.756Z,1017.83
2018-12-12T04:16:23.748Z,1017.85
2018-12-12T04:17:23.738Z,1017.79
2018-12-12T04:18:23.725Z,1017.78
2018-12-12T04:19:23.720Z,1017.77
2018-12-12T04:20:23.705Z,1017.75
2018-12-12T04:21:23.696Z,1017.78
2018-12-12T04:22:23.688Z,1017.79
2018-12-12T04:23:23.668Z,1017.76
2018-12-12T04:24:23.660Z,1017.77
2018-12-12T04:25:23.654Z,1017.78
2018-12-12T04:26:23.644Z,1017.72
2018-12-12T04:27:23.631Z,1017.79
2018-12-12T04:28:23.620Z,1017.80
2018-12-12T04:29:23.609Z,1017.79
2018-12-12T04:30:23.595Z,1017.89
2018-12-12T04:31:23.587Z,1017.86
2018-12-12T04:32:23.580Z,1017.87
2018-12-12T04:33:23.569Z,1017.91
2018-12-12T04:34:24.109Z,1017.88
2018-12-12T04:35:23.545Z,1017.91
2018-12-12T04:36:23.532Z,1017.88
2018-12-12T04:37:23.524Z,1017.88
2018-12-12T04:38:23.515Z,1017.88
2018-12-12T04:39:23.503Z,1017.90
2018-12-12T04:40:23.485Z,1017.89
2018-12-12T04:41:23.483Z,1017.91
2018-12-12T04:42:23.471Z,1017.86
2018-12-12T04:43:23.452Z,1017.87
2018-12-12T04:44:23.444Z,1017.88
2018-12-12T04:45:23.431Z,1017.93
2018-12-12T04:46:23.427Z,1017.89
2018-12-12T04:47:23.415Z,1017.91
2018-12-12T04:48:23.409Z,1017.94
2018-12-12T04:49:23.392Z,1017.90
2018-12-12T04:50:23.382Z,1017.90
2018-12-12T04:51:23.366Z,1017.91
2018-12-12T04:52:23.356Z,1017.91
2018-12-12T04:53:23.347Z,1017.86
2018-12-12T04:54:23.335Z,1017.91
2018-12-12T04:55:23.322Z,1017.92
2018-12-12T04:56:23.318Z,1017.92
2018-12-12T04:57:23.308Z,1017.90
2018-12-12T04:58:23.293Z,1017.85
2018-12-12T04:59:23.280Z,1017.85
2018-12-12T05:00:23.272Z,1017.90
2018-12-12T05:01:23.264Z,1017.83
2018-12-12T05:02:23.250Z,1017.85
2018-12-12T05:03:23.243Z,1017.86
2018-12-12T05:04:23.231Z,1017.85
2018-12-12T05:05:23.222Z,1017.80
2018-12-12T05:06:23.202Z,1017.81
2018-12-12T05:07:24.489Z,1017.81
2018-12-12T05:08:23.191Z,1017.81
2018-12-12T05:09:23.171Z,1017.79
2018-12-12T05:10:23.158Z,1017.83
2018-12-12T05:11:23.151Z,1017.85
2018-12-12T05:12:23.138Z,1017.83
2018-12-12T05:13:23.133Z,1017.80
2018-12-12T05:14:23.115Z,1017.82
2018-12-12T05:15:23.105Z,1017.82
2018-12-12T05:16:23.095Z,1017.81
2018-12-12T05:17:23.087Z,1017.83
2018-12-12T05:18:23.074Z,1017.89
2018-12-12T05:19:23.054Z,1017.89
2018-12-12T05:20:23.053Z,1017.97
2018-12-12T05:21:23.035Z,1017.96
2018-12-12T05:22:23.031Z,1017.99
2018-12-12T05:23:23.016Z,1018.00
2018-12-12T05:24:23.007Z,1018.02
2018-12-12T05:25:22.995Z,1018.03
2018-12-12T05:26:22.985Z,1018.05
2018-12-12T05:27:22.976Z,1018.05
2018-12-12T05:28:22.961Z,1018.04
2018-12-12T05:29:22.952Z,1018.06
2018-12-12T05:30:22.938Z,1018.09
2018-12-12T05:31:22.926Z,1018.06
2018-12-12T05:32:22.919Z,1018.10
2018-12-12T05:33:22.905Z,1018.08
2018-12-12T05:34:22.891Z,1018.10
2018-12-12T05:35:22.881Z,1018.07
2018-12-12T05:36:22.881Z,1018.08
2018-12-12T05:37:22.857Z,1018.11
2018-12-12T05:38:22.845Z,1018.09
2018-12-12T05:39:22.840Z,1018.13
2018-12-12T05:40:22.821Z,1018.09
2018-12-12T05:41:22.821Z,1018.11
2018-12-12T05:42:22.803Z,1018.10
2018-12-12T05:43:22.792Z,1018.10
2018-12-12T05:44:23.215Z,1018.10
2018-12-12T05:45:22.773Z,1018.09
2018-12-12T05:46:22.760Z,1018.10
2018-12-12T05:47:22.750Z,1018.11
2018-12-12T05:48:22.735Z,1018.06
2018-12-12T05:49:22.728Z,1018.10
2018-12-12T05:50:22.709Z,1018.10
2018-12-12T05:51:22.698Z,1018.06
2018-12-12T05:52:22.691Z,1018.11
2018-12-12T05:53:22.684Z,1018.12
2018-12-12T05:54:22.670Z,1018.09
2018-12-12T05:55:22.660Z,1018.14
2018-12-12T05:56:22.648Z,1018.12
2018-12-12T05:57:22.640Z,1018.12
2018-12-12T05:58:22.628Z,1018.14
2018-12-12T05:59:22.675Z,1018.15
2018-12-12T06:00:22.602Z,1018.18
2018-12-12T06:01:22.589Z,1018.19
2018-12-12T06:02:22.583Z,1018.18
2018-12-12T06:03:22.568Z,1018.20
2018-12-12T06:04:22.564Z,1018.25
2018-12-12T06:05:22.541Z,1018.21
2018-12-12T06:06:22.536Z,1018.22
2018-12-12T06:07:22.524Z,1018.26
2018-12-12T06:08:22.514Z,1018.27
2018-12-12T06:09:22.543Z,1018.31
2018-12-12T06:10:22.487Z,1018.33
2018-12-12T06:11:22.477Z,1018.33
2018-12-12T06:12:22.469Z,1018.34
2018-12-12T06:13:22.481Z,1018.35
2018-12-12T06:14:22.449Z,1018.35
2018-12-12T06:15:22.440Z,1018.36
2018-12-12T06:16:22.424Z,1018.36
2018-12-12T06:17:22.416Z,1018.35
2018-12-12T06:18:22.402Z,1018.36
2018-12-12T06:19:22.394Z,1018.31
2018-12-12T06:20:22.374Z,1018.34
2018-12-12T06:21:22.362Z,1018.35
2018-12-12T06:22:22.359Z,1018.36
2018-12-12T06:23:22.343Z,1018.34
2018-12-12T06:24:22.330Z,1018.30
2018-12-12T06:25:22.328Z,1018.31
2018-12-12T06:26:22.310Z,1018.29
2018-12-12T06:27:22.300Z,1018.34
2018-12-12T06:28:22.288Z,1018.33
2018-12-12T06:29:22.272Z,1018.32
2018-12-12T06:30:22.269Z,1018.26
2018-12-12T06:31:22.253Z,1018.30
2018-12-12T06:32:22.239Z,1018.30
2018-12-12T06:33:22.236Z,1018.34
2018-12-12T06:34:22.219Z,1018.35
2018-12-12T06:35:22.210Z,1018.32
2018-12-12T06:36:22.207Z,1018.31
2018-12-12T06:37:22.188Z,1018.33
2018-12-12T06:38:22.174Z,1018.30
2018-12-12T06:39:22.166Z,1018.33
2018-12-12T06:40:22.156Z,1018.35
2018-12-12T06:41:22.146Z,1018.34
2018-12-12T06:42:22.132Z,1018.36
2018-12-12T06:43:22.117Z,1018.39
2018-12-12T06:44:30.085Z,1018.40
2018-12-12T06:46:17.126Z,1018.47
2018-12-12T06:47:17.088Z,1018.46
2018-12-12T06:48:17.078Z,1018.45
2018-12-12T06:49:17.076Z,1018.45
2018-12-12T06:50:17.054Z,1018.47
2018-12-12T06:51:17.059Z,1018.46
2018-12-12T06:52:17.030Z,1018.45
2018-12-12T06:53:17.016Z,1018.44
2018-12-12T06:54:17.005Z,1018.46
2018-12-12T06:55:16.991Z,1018.49
2018-12-12T06:56:16.984Z,1018.49
2018-12-12T06:57:16.970Z,1018.53
2018-12-12T06:58:16.963Z,1018.51
2018-12-12T06:59:16.958Z,1018.52
2018-12-12T07:00:16.939Z,1018.51
2018-12-12T07:01:16.929Z,1018.51
2018-12-12T07:02:16.919Z,1018.51
2018-12-12T07:03:16.937Z,1018.49
2018-12-12T07:04:16.901Z,1018.50
2018-12-12T07:05:16.888Z,1018.49
2018-12-12T07:06:16.892Z,1018.49
2018-12-12T07:07:16.880Z,1018.49
2018-12-12T07:08:16.852Z,1018.50
2018-12-12T07:09:18.539Z,1018.53
2018-12-12T07:10:16.832Z,1018.53
2018-12-12T07:11:16.813Z,1018.54
2018-12-12T07:12:16.815Z,1018.59
2018-12-12T07:13:16.796Z,1018.59
2018-12-12T07:14:16.791Z,1018.61
2018-12-12T07:15:18.542Z,1018.58
2018-12-12T07:16:16.769Z,1018.59
2018-12-12T07:17:16.757Z,1018.58
2018-12-12T07:18:16.743Z,1018.57
2018-12-12T07:19:16.730Z,1018.59
2018-12-12T07:20:16.721Z,1018.60
2018-12-12T07:21:16.710Z,1018.57
2018-12-12T07:22:16.694Z,1018.58
2018-12-12T07:23:18.541Z,1018.57
2018-12-12T07:24:16.673Z,1018.58
2018-12-12T07:25:16.666Z,1018.56
2018-12-12T07:26:16.655Z,1018.60
2018-12-12T07:27:16.641Z,1018.59
2018-12-12T07:28:16.630Z,1018.60
2018-12-12T07:29:16.616Z,1018.63
2018-12-12T07:30:16.606Z,1018.66
2018-12-12T07:31:16.595Z,1018.63
2018-12-12T07:32:16.583Z,1018.63
2018-12-12T07:33:16.583Z,1018.67
2018-12-12T07:34:16.569Z,1018.67
2018-12-12T07:35:16.556Z,1018.69
2018-12-12T07:36:16.542Z,1018.66
2018-12-12T07:37:16.532Z,1018.67
2018-12-12T07:38:16.517Z,1018.66
2018-12-12T07:39:18.090Z,1018.67
2018-12-12T07:40:16.495Z,1018.68
2018-12-12T07:41:16.491Z,1018.70
2018-12-12T07:42:16.476Z,1018.71
2018-12-12T07:43:16.470Z,1018.72
2018-12-12T07:44:16.448Z,1018.74
2018-12-12T07:45:16.718Z,1018.77
2018-12-12T07:46:16.429Z,1018.75
2018-12-12T07:47:16.420Z,1018.78
2018-12-12T07:48:16.408Z,1018.78
2018-12-12T07:49:16.403Z,1018.79
2018-12-12T07:50:16.386Z,1018.83
2018-12-12T07:51:16.382Z,1018.83
2018-12-12T07:52:16.366Z,1018.85
2018-12-12T07:53:16.354Z,1018.87
2018-12-12T07:54:16.343Z,1018.86
2018-12-12T07:55:16.331Z,1018.86
2018-12-12T07:56:16.320Z,1018.85
2018-12-12T07:57:16.310Z,1018.92
2018-12-12T07:58:16.301Z,1018.87
2018-12-12T07:59:16.289Z,1018.86
2018-12-12T08:00:16.281Z,1018.88
2018-12-12T08:01:16.266Z,1018.89
2018-12-12T08:02:16.255Z,1018.91
2018-12-12T08:03:16.247Z,1018.88
2018-12-12T08:04:16.230Z,1018.91
2018-12-12T08:05:16.222Z,1018.93
2018-12-12T08:06:16.211Z,1018.95
2018-12-12T08:07:16.201Z,1018.91
2018-12-12T08:08:16.189Z,1018.92
2018-12-12T08:09:16.179Z,1018.92
2018-12-12T08:10:16.166Z,1018.95
2018-12-12T08:11:16.154Z,1019.01
2018-12-12T08:12:16.142Z,1018.99
2018-12-12T08:13:16.131Z,1018.99
2018-12-12T08:14:16.117Z,1019.02
2018-12-12T08:15:16.108Z,1019.01
2018-12-12T08:16:16.101Z,1019.02
2018-12-12T08:17:16.090Z,1019.01
2018-12-12T08:18:16.077Z,1019.03
2018-12-12T08:19:16.065Z,1019.03
2018-12-12T08:20:16.052Z,1019.04
2018-12-12T08:21:16.041Z,1019.06
2018-12-12T08:22:17.566Z,1019.03
2018-12-12T08:23:16.023Z,1019.02
2018-12-12T08:24:16.025Z,1019.07
2018-12-12T08:25:16.007Z,1019.07
2018-12-12T08:26:15.991Z,1019.05
2018-12-12T08:27:15.981Z,1019.04
2018-12-12T08:28:15.969Z,1019.06
2018-12-12T08:29:15.956Z,1019.05
2018-12-12T08:30:15.943Z,1019.05
2018-12-12T08:31:15.936Z,1019.07
2018-12-12T08:32:15.926Z,1019.06
2018-12-12T08:33:15.912Z,1019.03
2018-12-12T08:34:15.904Z,1019.07
2018-12-12T08:35:15.886Z,1019.08
2018-12-12T08:36:15.881Z,1019.09
2018-12-12T08:37:15.870Z,1019.09
2018-12-12T08:38:15.862Z,1019.07
2018-12-12T08:39:15.858Z,1019.07
2018-12-12T08:40:15.830Z,1019.07
2018-12-12T08:41:15.820Z,1019.08
2018-12-12T08:42:15.817Z,1019.09
2018-12-12T08:43:15.809Z,1019.08
2018-12-12T08:44:15.787Z,1019.13
2018-12-12T08:45:15.779Z,1019.12
2018-12-12T08:46:15.767Z,1019.07
2018-12-12T08:47:15.762Z,1019.06
2018-12-12T08:48:15.750Z,1019.09
2018-12-12T08:49:15.740Z,1019.12
2018-12-12T08:50:15.724Z,1019.15
2018-12-12T08:51:15.713Z,1019.15
2018-12-12T08:52:15.704Z,1019.14
2018-12-12T08:53:15.696Z,1019.15
2018-12-12T08:54:15.680Z,1019.15
2018-12-12T08:55:17.773Z,1019.11
2018-12-12T08:56:15.660Z,1019.16
2018-12-12T08:57:15.645Z,1019.14
2018-12-12T08:58:15.641Z,1019.15
2018-12-12T08:59:15.633Z,1019.16
2018-12-12T09:00:15.623Z,1019.16
2018-12-12T09:01:15.605Z,1019.17
2018-12-12T09:02:15.596Z,1019.18
2018-12-12T09:03:17.712Z,1019.19
2018-12-12T09:04:15.576Z,1019.17
2018-12-12T09:05:15.561Z,1019.16
2018-12-12T09:06:15.553Z,1019.20
2018-12-12T09:07:15.543Z,1019.21
2018-12-12T09:08:15.531Z,1019.22
2018-12-12T09:09:15.522Z,1019.20
2018-12-12T09:10:15.508Z,1019.19
2018-12-12T09:11:15.501Z,1019.26
2018-12-12T09:12:15.494Z,1019.21
2018-12-12T09:13:15.534Z,1019.21
2018-12-12T09:14:15.497Z,1019.17
2018-12-12T09:15:15.459Z,1019.19
2018-12-12T09:16:15.447Z,1019.20
2018-12-12T09:17:15.444Z,1019.22
2018-12-12T09:18:15.423Z,1019.24
2018-12-12T09:19:15.431Z,1019.26
2018-12-12T09:20:15.406Z,1019.26
2018-12-12T09:21:15.417Z,1019.27
2018-12-12T09:22:15.380Z,1019.27
2018-12-12T09:23:15.378Z,1019.29
2018-12-12T09:24:15.359Z,1019.29
2018-12-12T09:25:15.350Z,1019.31
2018-12-12T09:26:15.341Z,1019.28
2018-12-12T09:27:15.335Z,1019.31
2018-12-12T09:28:15.319Z,1019.30
2018-12-12T09:29:15.312Z,1019.31
2018-12-12T09:30:15.302Z,1019.33
2018-12-12T09:31:15.291Z,1019.33
2018-12-12T09:32:15.279Z,1019.36
2018-12-12T09:33:15.269Z,1019.39
2018-12-12T09:34:15.262Z,1019.40
2018-12-12T09:35:15.253Z,1019.40
2018-12-12T09:36:15.242Z,1019.41
2018-12-12T09:37:15.238Z,1019.42
2018-12-12T09:38:15.213Z,1019.42
2018-12-12T09:39:15.208Z,1019.46
2018-12-12T09:40:15.196Z,1019.45
2018-12-12T09:41:15.186Z,1019.44
2018-12-12T09:42:17.091Z,1019.46
2018-12-12T09:43:15.167Z,1019.43
2018-12-12T09:44:15.154Z,1019.46
2018-12-12T09:45:21.543Z,1019.46
2018-12-12T09:46:15.137Z,1019.42
2018-12-12T09:47:15.125Z,1019.44
2018-12-12T09:48:19.248Z,1019.40
2018-12-12T09:49:15.107Z,1019.38
2018-12-12T09:50:15.095Z,1019.40
2018-12-12T09:51:15.086Z,1019.41
2018-12-12T09:52:15.073Z,1019.42
2018-12-12T09:53:15.063Z,1019.47
2018-12-12T09:54:15.053Z,1019.43
2018-12-12T09:55:15.041Z,1019.46
2018-12-12T09:56:15.032Z,1019.45
2018-12-12T09:57:15.023Z,1019.43
2018-12-12T09:58:15.015Z,1019.42
2018-12-12T09:59:15.006Z,1019.40
2018-12-12T10:00:16.603Z,1019.40
2018-12-12T10:01:14.983Z,1019.42
2018-12-12T10:02:14.973Z,1019.38
2018-12-12T10:03:14.961Z,1019.42
2018-12-12T10:04:14.951Z,1019.42
2018-12-12T10:05:14.941Z,1019.45
2018-12-12T10:06:14.932Z,1019.44
2018-12-12T10:07:14.922Z,1019.49
2018-12-12T10:08:14.915Z,1019.50
2018-12-12T10:09:14.905Z,1019.44
2018-12-12T10:10:14.893Z,1019.48
2018-12-12T10:11:14.880Z,1019.46
2018-12-12T10:12:16.592Z,1019.44
2018-12-12T10:13:14.857Z,1019.45
2018-12-12T10:14:14.849Z,1019.47
2018-12-12T10:15:14.842Z,1019.44
2018-12-12T10:16:14.827Z,1019.48
2018-12-12T10:17:14.817Z,1019.46
2018-12-12T10:18:14.840Z,1019.50
2018-12-12T10:19:14.801Z,1019.50
2018-12-12T10:20:14.786Z,1019.51
2018-12-12T10:21:14.778Z,1019.51
2018-12-12T10:22:14.766Z,1019.49
2018-12-12T10:23:14.758Z,1019.51
2018-12-12T10:24:14.750Z,1019.53
2018-12-12T10:25:14.738Z,1019.51
2018-12-12T10:26:14.732Z,1019.50
2018-12-12T10:27:14.718Z,1019.48
2018-12-12T10:28:14.710Z,1019.48
2018-12-12T10:29:14.697Z,1019.51
2018-12-12T10:30:14.685Z,1019.46
2018-12-12T10:31:14.677Z,1019.44
2018-12-12T10:32:14.667Z,1019.46
2018-12-12T10:33:14.656Z,1019.46
2018-12-12T10:34:14.656Z,1019.46
2018-12-12T10:35:14.697Z,1019.45
2018-12-12T10:36:14.627Z,1019.40
2018-12-12T10:37:14.627Z,1019.37
2018-12-12T10:38:14.609Z,1019.35
2018-12-12T10:39:14.597Z,1019.31
2018-12-12T10:40:14.585Z,1019.30
2018-12-12T10:41:14.573Z,1019.36
2018-12-12T10:42:14.565Z,1019.33
2018-12-12T10:43:14.555Z,1019.39
2018-12-12T10:44:14.544Z,1019.39
2018-12-12T10:45:14.536Z,1019.39
2018-12-12T10:46:14.524Z,1019.34
2018-12-12T10:47:14.519Z,1019.37
2018-12-12T10:48:14.502Z,1019.37
2018-12-12T10:49:14.501Z,1019.36
2018-12-12T10:50:14.487Z,1019.37
2018-12-12T10:51:14.475Z,1019.35
2018-12-12T10:52:14.463Z,1019.30
2018-12-12T10:53:14.456Z,1019.31
2018-12-12T10:54:14.445Z,1019.31
2018-12-12T10:55:14.438Z,1019.27
2018-12-12T10:56:14.430Z,1019.26
2018-12-12T10:57:14.421Z,1019.30
2018-12-12T10:58:14.405Z,1019.29
2018-12-12T10:59:14.399Z,1019.28
2018-12-12T11:00:14.396Z,1019.31
2018-12-12T11:01:14.381Z,1019.28
2018-12-12T11:02:14.378Z,1019.26
2018-12-12T11:03:14.365Z,1019.27
2018-12-12T11:04:14.350Z,1019.28
2018-12-12T11:05:14.343Z,1019.26
2018-12-12T11:06:14.328Z,1019.31
2018-12-12T11:07:14.324Z,1019.28
2018-12-12T11:08:14.315Z,1019.26
2018-12-12T11:09:14.312Z,1019.23
2018-12-12T11:10:14.296Z,1019.24
2018-12-12T11:11:14.291Z,1019.22
2018-12-12T11:12:14.274Z,1019.23
2018-12-12T11:13:14.269Z,1019.21
2018-12-12T11:14:14.261Z,1019.20
2018-12-12T11:15:14.248Z,1019.21
2018-12-12T11:16:14.245Z,1019.24
2018-12-12T11:17:16.127Z,1019.24
2018-12-12T11:18:14.222Z,1019.25
2018-12-12T11:19:14.210Z,1019.23
2018-12-12T11:20:16.127Z,1019.27
2018-12-12T11:21:14.193Z,1019.27
2018-12-12T11:22:14.186Z,1019.29
2018-12-12T11:23:14.179Z,1019.27
2018-12-12T11:24:16.119Z,1019.28
2018-12-12T11:25:14.161Z,1019.26
2018-12-12T11:26:14.150Z,1019.23
2018-12-12T11:27:14.139Z,1019.24
2018-12-12T11:28:14.133Z,1019.22
2018-12-12T11:29:14.121Z,1019.22
2018-12-12T11:30:14.114Z,1019.22
2018-12-12T11:31:14.103Z,1019.21
2018-12-12T11:32:14.088Z,1019.19
2018-12-12T11:33:14.086Z,1019.20
2018-12-12T11:34:14.072Z,1019.19
2018-12-12T11:35:14.063Z,1019.19
2018-12-12T11:36:14.060Z,1019.19
2018-12-12T11:37:14.047Z,1019.19
2018-12-12T11:38:14.035Z,1019.17
2018-12-12T11:39:14.030Z,1019.16
2018-12-12T11:40:14.018Z,1019.17
2018-12-12T11:41:14.045Z,1019.20
2018-12-12T11:42:14.003Z,1019.18
2018-12-12T11:43:14.012Z,1019.17
2018-12-12T11:44:13.983Z,1019.20
2018-12-12T11:45:13.975Z,1019.14
2018-12-12T11:46:13.958Z,1019.17
2018-12-12T11:47:13.955Z,1019.13
2018-12-12T11:48:13.943Z,1019.15
2018-12-12T11:49:13.937Z,1019.09
2018-12-12T11:50:13.922Z,1019.18
2018-12-12T11:51:13.913Z,1019.17
2018-12-12T11:52:13.899Z,1019.14
2018-12-12T11:53:13.908Z,1019.12
2018-12-12T11:54:13.890Z,1019.11
2018-12-12T11:55:13.875Z,1019.09
2018-12-12T11:56:13.863Z,1019.09
2018-12-12T11:57:13.856Z,1019.09
2018-12-12T11:58:13.850Z,1019.11
2018-12-12T11:59:13.838Z,1019.08
2018-12-12T12:00:15.643Z,1019.06
2018-12-12T12:01:13.825Z,1019.07
2018-12-12T12:02:13.809Z,1019.07
2018-12-12T12:03:13.803Z,1019.05
2018-12-12T12:04:13.789Z,1018.97
2018-12-12T12:05:13.785Z,1019.01
2018-12-12T12:06:13.787Z,1018.98